createdAt,value
2019-02-09T00:01:10.080Z,118.27
2019-02-09T00:03:39.658Z,94.27
2019-02-09T00:06:09.306Z,117.53
2019-02-09T00:08:38.698Z,99.47
2019-02-09T00:11:08.550Z,111.23
2019-02-09T00:13:38.087Z,119.07
2019-02-09T00:16:07.589Z,85.07
2019-02-09T00:18:37.220Z,102.87
2019-02-09T00:21:07.214Z,128.40
2019-02-09T00:23:36.602Z,113.77
2019-02-09T00:26:06.174Z,118.57
2019-02-09T00:28:35.575Z,119.83
2019-02-09T00:31:05.297Z,109.80
2019-02-09T00:33:34.713Z,110.80
2019-02-09T00:36:04.494Z,93.80
2019-02-09T00:38:33.945Z,101.80
2019-02-09T00:41:03.302Z,109.17
2019-02-09T00:43:32.758Z,110.13
2019-02-09T00:46:02.133Z,106.90
2019-02-09T00:48:31.675Z,127.87
2019-02-09T00:51:01.036Z,131.23
2019-02-09T00:53:30.410Z,122.33
2019-02-09T00:55:59.972Z,131.77
2019-02-09T00:58:29.429Z,126.53
2019-02-09T01:00:58.880Z,106.13
2019-02-09T01:03:28.350Z,121.97
2019-02-09T01:05:57.785Z,125.30
2019-02-09T01:08:27.165Z,126.27
2019-02-09T01:10:56.526Z,131.27
2019-02-09T01:13:25.991Z,134.00
2019-02-09T01:15:55.362Z,145.67
2019-02-09T01:18:24.800Z,128.40
2019-02-09T01:20:54.168Z,108.60
2019-02-09T01:23:23.777Z,137.13
2019-02-09T01:25:53.132Z,130.20
2019-02-09T01:28:22.768Z,123.47
2019-02-09T01:30:52.216Z,105.07
2019-02-09T01:33:21.569Z,91.53
2019-02-09T01:35:51.010Z,116.07
2019-02-09T01:38:20.373Z,123.37
2019-02-09T01:40:49.814Z,131.30
2019-02-09T01:43:19.175Z,113.90
2019-02-09T01:45:48.642Z,117.77
2019-02-09T01:48:17.965Z,73.50
2019-02-09T01:50:47.381Z,128.47
2019-02-09T01:53:16.834Z,119.57
2019-02-09T01:55:46.190Z,99.23
2019-02-09T01:58:15.622Z,120.07
2019-02-09T02:00:44.985Z,114.43
2019-02-09T02:03:14.426Z,98.13
2019-02-09T02:05:43.977Z,124.10
2019-02-09T02:08:15.563Z,121.83
2019-02-09T02:10:44.953Z,125.17
2019-02-09T02:13:14.404Z,119.33
2019-02-09T02:15:43.819Z,115.50
2019-02-09T02:18:13.233Z,120.13
2019-02-09T02:20:42.590Z,116.37
2019-02-09T02:23:11.999Z,98.70
2019-02-09T02:25:41.486Z,108.57
2019-02-09T02:28:10.903Z,108.77
2019-02-09T02:30:40.312Z,115.00
2019-02-09T02:33:09.873Z,101.30
2019-02-09T02:35:39.537Z,118.37
2019-02-09T02:38:08.865Z,68.53
2019-02-09T02:40:38.786Z,106.60
2019-02-09T02:43:08.390Z,111.83
2019-02-09T02:45:37.817Z,131.70
2019-02-09T02:48:07.189Z,108.47
2019-02-09T02:50:36.828Z,104.30
2019-02-09T02:53:06.209Z,110.10
2019-02-09T02:55:35.589Z,107.73
2019-02-09T02:58:05.455Z,94.63
2019-02-09T03:00:35.250Z,108.83
2019-02-09T03:03:04.896Z,117.43
2019-02-09T03:05:34.239Z,122.20
2019-02-09T03:08:04.138Z,95.87
2019-02-09T03:10:33.767Z,119.10
2019-02-09T03:13:03.178Z,111.93
2019-02-09T03:15:32.767Z,87.63
2019-02-09T03:18:02.206Z,124.20
2019-02-09T03:20:31.955Z,116.47
2019-02-09T03:23:01.412Z,110.73
2019-02-09T03:25:32.316Z,112.07
2019-02-09T03:28:01.769Z,101.30
2019-02-09T03:30:37.408Z,101.67
2019-02-09T03:33:02.343Z,94.57
2019-02-09T03:35:31.777Z,85.57
2019-02-09T03:38:01.233Z,100.17
2019-02-09T03:40:30.590Z,99.33
2019-02-09T03:43:00.133Z,76.60
2019-02-09T03:45:30.909Z,85.83
2019-02-09T03:48:00.780Z,74.83
2019-02-09T03:50:31.430Z,74.87
2019-02-09T03:53:01.410Z,84.03
2019-02-09T03:55:31.359Z,66.83
2019-02-09T03:58:00.685Z,58.03
2019-02-09T04:00:31.189Z,89.50
2019-02-09T04:03:01.062Z,70.83
2019-02-09T04:05:30.548Z,105.03
2019-02-09T04:08:00.452Z,89.80
2019-02-09T04:10:29.853Z,93.20
2019-02-09T04:12:59.211Z,88.83
2019-02-09T04:15:28.962Z,60.70
2019-02-09T04:17:58.609Z,90.90
2019-02-09T04:20:28.112Z,85.93
2019-02-09T04:22:57.633Z,102.03
2019-02-09T04:25:27.006Z,88.17
2019-02-09T04:27:56.578Z,76.13
2019-02-09T04:30:28.313Z,98.37
2019-02-09T04:32:58.099Z,98.67
2019-02-09T04:35:27.538Z,84.83
2019-02-09T04:37:57.109Z,88.50
2019-02-09T04:40:31.113Z,81.47
2019-02-09T04:43:00.670Z,89.00
2019-02-09T04:45:30.239Z,85.33
2019-02-09T04:47:59.687Z,83.67
2019-02-09T04:50:29.131Z,70.13
2019-02-09T04:52:58.841Z,97.27
2019-02-09T04:55:28.630Z,80.67
2019-02-09T04:57:58.262Z,90.20
2019-02-09T05:00:29.650Z,87.63
2019-02-09T05:02:59.349Z,89.80
2019-02-09T05:05:29.628Z,71.80
2019-02-09T05:07:59.087Z,68.17
2019-02-09T05:10:28.674Z,92.57
2019-02-09T05:12:58.211Z,87.13
2019-02-09T05:15:27.604Z,71.20
2019-02-09T05:17:56.977Z,92.47
2019-02-09T05:20:26.385Z,88.10
2019-02-09T05:22:55.966Z,90.77
2019-02-09T05:25:25.310Z,90.20
2019-02-09T05:27:54.814Z,89.73
2019-02-09T05:30:26.155Z,88.43
2019-02-09T05:32:55.900Z,53.87
2019-02-09T05:35:25.735Z,94.90
2019-02-09T05:37:55.240Z,62.33
2019-02-09T05:40:25.465Z,80.37
2019-02-09T05:42:55.315Z,96.63
2019-02-09T05:45:26.651Z,99.97
2019-02-09T05:47:56.339Z,55.30
2019-02-09T05:50:25.659Z,96.07
2019-02-09T05:52:55.132Z,67.70
2019-02-09T05:55:24.599Z,81.87
2019-02-09T05:57:54.056Z,95.30
2019-02-09T06:00:29.801Z,103.70
2019-02-09T06:02:59.205Z,85.07
2019-02-09T06:05:28.589Z,99.70
2019-02-09T06:07:58.057Z,76.57
2019-02-09T06:10:27.589Z,93.03
2019-02-09T06:12:57.008Z,88.83
2019-02-09T06:15:26.569Z,94.27
2019-02-09T06:17:55.914Z,82.50
2019-02-09T06:20:26.362Z,83.17
2019-02-09T06:22:55.744Z,83.47
2019-02-09T06:25:25.247Z,81.37
2019-02-09T06:27:54.694Z,75.73
2019-02-09T06:30:26.194Z,94.17
2019-02-09T06:32:55.577Z,88.73
2019-02-09T06:35:25.384Z,90.33
2019-02-09T06:37:55.054Z,72.50
2019-02-09T06:40:24.595Z,85.40
2019-02-09T06:42:54.034Z,85.97
2019-02-09T06:45:24.033Z,82.83
2019-02-09T06:47:53.694Z,91.57
2019-02-09T06:50:26.061Z,58.67
2019-02-09T06:52:55.482Z,73.77
2019-02-09T06:55:24.924Z,78.47
2019-02-09T06:57:54.283Z,87.33
2019-02-09T07:00:23.977Z,82.90
2019-02-09T07:02:54.608Z,75.93
2019-02-09T07:05:24.226Z,53.20
2019-02-09T07:07:53.705Z,58.77
2019-02-09T07:10:24.230Z,65.23
2019-02-09T07:12:53.735Z,79.60
2019-02-09T07:15:25.614Z,72.90
2019-02-09T07:17:55.294Z,67.60
2019-02-09T07:20:24.777Z,53.77
2019-02-09T07:22:54.590Z,66.13
2019-02-09T07:25:24.528Z,69.70
2019-02-09T07:27:54.078Z,80.13
2019-02-09T07:30:25.539Z,47.10
2019-02-09T07:32:55.725Z,49.53
2019-02-09T07:35:25.178Z,52.93
2019-02-09T07:37:54.606Z,61.40
2019-02-09T07:40:24.545Z,39.90
2019-02-09T07:42:54.078Z,42.83
2019-02-09T07:45:25.278Z,52.53
2019-02-09T07:47:54.658Z,40.13
2019-02-09T07:50:25.310Z,34.53
2019-02-09T07:52:54.939Z,44.67
2019-02-09T07:55:24.649Z,44.70
2019-02-09T07:57:54.568Z,50.97
2019-02-09T08:00:26.775Z,48.70
2019-02-09T08:02:56.319Z,42.60
2019-02-09T08:05:27.643Z,58.13
2019-02-09T08:07:57.250Z,51.97
2019-02-09T08:10:28.932Z,50.70
2019-02-09T08:12:58.780Z,48.03
2019-02-09T08:15:29.687Z,53.03
2019-02-09T08:17:59.418Z,44.43
2019-02-09T08:20:29.813Z,42.83
2019-02-09T08:23:00.243Z,45.90
2019-02-09T08:25:31.663Z,41.93
2019-02-09T08:28:01.270Z,50.70
2019-02-09T08:30:42.108Z,43.77
2019-02-09T08:33:11.827Z,56.27
2019-02-09T08:35:41.267Z,43.43
2019-02-09T08:38:12.598Z,40.03
2019-02-09T08:40:42.062Z,49.53
2019-02-09T08:43:11.483Z,43.53
2019-02-09T08:45:40.899Z,52.17
2019-02-09T08:48:10.650Z,46.23
2019-02-09T08:50:46.323Z,47.53
2019-02-09T08:53:15.837Z,50.13
2019-02-09T08:55:45.430Z,49.77
2019-02-09T08:58:14.951Z,35.90
2019-02-09T09:00:44.402Z,40.80
2019-02-09T09:03:13.818Z,45.63
2019-02-09T09:05:43.352Z,44.80
2019-02-09T09:08:12.758Z,52.60
2019-02-09T09:10:42.222Z,37.50
2019-02-09T09:13:11.762Z,44.20
2019-02-09T09:15:46.954Z,55.53
2019-02-09T09:18:16.479Z,45.87
2019-02-09T09:20:49.103Z,39.27
2019-02-09T09:23:18.621Z,39.60
2019-02-09T09:25:48.154Z,53.90
2019-02-09T09:28:17.566Z,34.60
2019-02-09T09:30:47.110Z,57.47
2019-02-09T09:33:16.505Z,45.10
2019-02-09T09:35:45.952Z,55.53
2019-02-09T09:38:15.301Z,64.37
2019-02-09T09:40:44.902Z,60.10
2019-02-09T09:43:14.327Z,45.47
2019-02-09T09:45:44.105Z,41.80
2019-02-09T09:48:15.074Z,38.13
2019-02-09T09:50:44.407Z,40.63
2019-02-09T09:53:13.933Z,66.10
2019-02-09T09:55:43.355Z,38.47
2019-02-09T09:58:12.802Z,37.73
2019-02-09T10:00:42.356Z,53.53
2019-02-09T10:03:11.791Z,58.30
2019-02-09T10:05:41.183Z,57.87
2019-02-09T10:08:11.047Z,60.87
2019-02-09T10:10:40.602Z,45.23
2019-02-09T10:13:12.750Z,43.33
2019-02-09T10:15:42.242Z,46.63
2019-02-09T10:18:11.683Z,52.10
2019-02-09T10:20:41.082Z,38.43
2019-02-09T10:23:10.453Z,40.97
2019-02-09T10:25:39.906Z,42.57
2019-02-09T10:28:09.575Z,38.80
2019-02-09T10:30:39.117Z,34.87
2019-02-09T10:33:08.710Z,40.77
2019-02-09T10:35:38.133Z,37.17
2019-02-09T10:38:07.588Z,44.90
2019-02-09T10:40:37.082Z,42.63
2019-02-09T10:43:07.247Z,30.40
2019-02-09T10:45:37.808Z,30.20
2019-02-09T10:48:08.199Z,38.57
2019-02-09T10:50:45.473Z,28.03
2019-02-09T10:53:14.874Z,34.47
2019-02-09T10:55:44.339Z,32.73
2019-02-09T10:58:13.779Z,31.33
2019-02-09T11:00:49.245Z,32.00
2019-02-09T11:03:18.900Z,29.13
2019-02-09T11:05:48.403Z,38.37
2019-02-09T11:08:18.027Z,28.47
2019-02-09T11:10:47.439Z,36.93
2019-02-09T11:13:16.996Z,31.03
2019-02-09T11:15:46.345Z,35.10
2019-02-09T11:18:15.786Z,43.37
2019-02-09T11:20:45.186Z,22.93
2019-02-09T11:23:14.612Z,34.73
2019-02-09T11:25:44.065Z,33.47
2019-02-09T11:28:13.454Z,30.70
2019-02-09T11:30:43.017Z,28.97
2019-02-09T11:33:12.498Z,37.70
2019-02-09T11:35:41.932Z,39.57
2019-02-09T11:38:11.362Z,32.47
2019-02-09T11:40:40.813Z,32.37
2019-02-09T11:43:10.379Z,29.40
2019-02-09T11:45:39.837Z,38.37
2019-02-09T11:48:09.520Z,32.67
2019-02-09T11:50:38.979Z,32.87
2019-02-09T11:53:08.561Z,40.60
2019-02-09T11:55:38.083Z,38.70
2019-02-09T11:58:07.718Z,38.47
2019-02-09T12:00:46.311Z,33.30
2019-02-09T12:03:16.328Z,32.57
2019-02-09T12:05:45.992Z,41.17
2019-02-09T12:08:15.366Z,40.07
2019-02-09T12:10:44.919Z,35.40
2019-02-09T12:13:14.272Z,31.03
2019-02-09T12:15:43.995Z,37.13
2019-02-09T12:18:13.481Z,32.73
2019-02-09T12:20:42.907Z,37.67
2019-02-09T12:23:12.274Z,35.83
2019-02-09T12:25:41.738Z,37.90
2019-02-09T12:28:11.079Z,35.30
2019-02-09T12:30:40.835Z,35.80
2019-02-09T12:33:10.978Z,31.87
2019-02-09T12:35:41.439Z,28.90
2019-02-09T12:38:11.082Z,31.87
2019-02-09T12:40:40.519Z,51.37
2019-02-09T12:43:10.190Z,44.43
2019-02-09T12:45:40.006Z,35.50
2019-02-09T12:48:09.903Z,38.53
2019-02-09T12:50:39.697Z,32.63
2019-02-09T12:53:09.382Z,36.47
2019-02-09T12:55:38.813Z,42.60
2019-02-09T12:58:08.380Z,27.17
2019-02-09T13:00:38.265Z,35.77
2019-02-09T13:03:11.472Z,41.13
2019-02-09T13:05:40.982Z,34.83
2019-02-09T13:08:10.451Z,36.70
2019-02-09T13:10:39.885Z,36.33
2019-02-09T13:13:09.249Z,33.10
2019-02-09T13:15:38.593Z,36.17
2019-02-09T13:18:08.276Z,41.00
2019-02-09T13:20:37.617Z,43.70
2019-02-09T13:23:08.828Z,36.13
2019-02-09T13:25:38.309Z,31.80
2019-02-09T13:28:08.480Z,35.00
2019-02-09T13:30:38.707Z,39.27
2019-02-09T13:33:08.762Z,38.53
2019-02-09T13:35:38.173Z,30.93
2019-02-09T13:38:07.669Z,37.17
2019-02-09T13:40:36.995Z,40.50
2019-02-09T13:43:06.598Z,35.20
2019-02-09T13:45:38.432Z,38.40
2019-02-09T13:48:08.802Z,41.30
2019-02-09T13:50:38.787Z,32.60
2019-02-09T13:53:09.449Z,30.90
2019-02-09T13:55:38.805Z,32.20
2019-02-09T13:58:08.369Z,40.00
2019-02-09T14:00:38.378Z,42.83
2019-02-09T14:03:08.778Z,34.27
2019-02-09T14:05:38.563Z,28.23
2019-02-09T14:08:09.144Z,51.30
2019-02-09T14:10:38.610Z,37.67
2019-02-09T14:13:14.310Z,39.43
2019-02-09T14:15:39.457Z,35.17
2019-02-09T14:18:10.014Z,36.83
2019-02-09T14:20:39.685Z,40.43
2019-02-09T14:23:09.125Z,43.23
2019-02-09T14:25:38.653Z,33.97
2019-02-09T14:28:08.520Z,41.97
2019-02-09T14:30:38.441Z,38.60
2019-02-09T14:33:09.618Z,48.67
2019-02-09T14:35:40.853Z,44.50
2019-02-09T14:38:10.452Z,37.07
2019-02-09T14:40:41.194Z,42.30
2019-02-09T14:43:11.376Z,40.77
2019-02-09T14:45:43.053Z,29.70
2019-02-09T14:48:12.635Z,33.13
2019-02-09T14:50:42.346Z,37.80
2019-02-09T14:53:12.106Z,34.60
2019-02-09T14:55:42.276Z,42.53
2019-02-09T14:58:11.703Z,34.40
2019-02-09T15:00:46.774Z,40.83
2019-02-09T15:03:16.283Z,37.90
2019-02-09T15:05:45.843Z,42.03
2019-02-09T15:08:15.268Z,36.10
2019-02-09T15:10:44.676Z,36.27
2019-02-09T15:13:15.145Z,32.20
2019-02-09T15:16:14.954Z,37.27
2019-02-09T15:18:44.509Z,32.60
2019-02-09T15:21:13.932Z,48.60
2019-02-09T15:23:43.557Z,38.47
2019-02-09T15:26:13.976Z,32.53
2019-02-09T15:28:43.440Z,40.33
2019-02-09T15:31:12.809Z,29.07
2019-02-09T15:33:42.423Z,41.33
2019-02-09T15:36:11.922Z,39.77
2019-02-09T15:38:41.332Z,40.60
2019-02-09T15:41:10.709Z,31.93
2019-02-09T15:43:40.165Z,32.33
2019-02-09T15:46:09.595Z,34.80
2019-02-09T15:48:39.051Z,24.07
2019-02-09T15:51:09.020Z,35.77
2019-02-09T15:53:38.559Z,38.97
2019-02-09T15:56:07.998Z,36.73
2019-02-09T15:58:37.461Z,35.87
2019-02-09T16:01:07.035Z,37.80
2019-02-09T16:03:36.637Z,43.67
2019-02-09T16:06:06.406Z,44.63
2019-02-09T16:08:35.752Z,49.13
2019-02-09T16:11:05.635Z,44.90
2019-02-09T16:13:36.422Z,45.77
2019-02-09T16:16:06.750Z,39.40
2019-02-09T16:18:36.217Z,41.20
2019-02-09T16:21:05.795Z,43.43
2019-02-09T16:23:35.169Z,45.53
2019-02-09T16:26:04.889Z,54.30
2019-02-09T16:28:34.419Z,43.70
2019-02-09T16:31:03.847Z,33.63
2019-02-09T16:33:33.258Z,46.57
2019-02-09T16:36:02.695Z,48.60
2019-02-09T16:38:32.162Z,45.60
2019-02-09T16:41:01.625Z,51.60
2019-02-09T16:43:31.079Z,35.23
2019-02-09T16:46:00.528Z,46.50
2019-02-09T16:48:29.873Z,49.50
2019-02-09T16:50:59.351Z,44.40
2019-02-09T16:53:28.771Z,48.13
2019-02-09T16:55:58.323Z,32.70
2019-02-09T16:58:27.739Z,34.53
2019-02-09T17:00:57.233Z,38.73
2019-02-09T17:03:26.639Z,44.40
2019-02-09T17:05:56.036Z,24.87
2019-02-09T17:08:25.661Z,38.43
2019-02-09T17:10:55.367Z,32.70
2019-02-09T17:13:24.881Z,33.33
2019-02-09T17:15:54.330Z,31.00
2019-02-09T17:18:23.799Z,45.17
2019-02-09T17:20:53.224Z,43.00
2019-02-09T17:23:24.004Z,38.37
2019-02-09T17:25:53.536Z,29.67
2019-02-09T17:28:23.109Z,36.90
2019-02-09T17:30:52.494Z,36.53
2019-02-09T17:33:22.056Z,35.20
2019-02-09T17:35:51.598Z,37.33
2019-02-09T17:38:21.064Z,42.87
2019-02-09T17:40:50.525Z,46.07
2019-02-09T17:43:20.087Z,41.40
2019-02-09T17:46:02.097Z,52.50
2019-02-09T17:48:31.676Z,45.43
2019-02-09T17:51:01.130Z,40.03
2019-02-09T17:53:30.568Z,41.57
2019-02-09T17:56:00.115Z,38.70
2019-02-09T17:58:29.537Z,36.93
2019-02-09T18:01:04.843Z,52.47
2019-02-09T18:03:34.429Z,38.40
2019-02-09T18:06:03.864Z,42.50
2019-02-09T18:08:33.279Z,36.53
2019-02-09T18:11:02.739Z,44.33
2019-02-09T18:13:32.210Z,47.23
2019-02-09T18:16:01.672Z,35.83
2019-02-09T18:18:31.095Z,39.97
2019-02-09T18:21:00.895Z,41.13
2019-02-09T18:23:30.308Z,45.90
2019-02-09T18:25:59.982Z,38.10
2019-02-09T18:28:29.385Z,36.10
2019-02-09T18:30:58.817Z,42.00
2019-02-09T18:33:28.368Z,47.80
2019-02-09T18:35:57.880Z,46.50
2019-02-09T18:38:27.317Z,45.33
2019-02-09T18:40:56.763Z,44.13
2019-02-09T18:43:26.277Z,61.90
2019-02-09T18:45:57.827Z,45.17
2019-02-09T18:48:27.144Z,45.57
2019-02-09T18:50:56.567Z,48.80
2019-02-09T18:53:25.965Z,32.73
2019-02-09T18:55:56.670Z,33.60
2019-02-09T18:58:26.237Z,24.83
2019-02-09T19:00:55.896Z,35.70
2019-02-09T19:03:25.338Z,43.63
2019-02-09T19:05:54.902Z,30.70
2019-02-09T19:08:24.324Z,41.33
2019-02-09T19:10:53.757Z,37.50
2019-02-09T19:13:23.726Z,38.60
2019-02-09T19:15:53.265Z,30.23
2019-02-09T19:18:22.834Z,41.87
2019-02-09T19:20:55.069Z,38.60
2019-02-09T19:23:24.438Z,40.53
2019-02-09T19:25:53.810Z,45.70
2019-02-09T19:28:23.275Z,43.20
2019-02-09T19:30:52.802Z,34.57
2019-02-09T19:33:22.345Z,40.27
2019-02-09T19:35:51.736Z,44.57
2019-02-09T19:38:21.183Z,45.67
2019-02-09T19:40:50.647Z,28.47
2019-02-09T19:43:20.191Z,39.93
2019-02-09T19:45:49.534Z,30.17
2019-02-09T19:48:19.558Z,38.70
2019-02-09T19:50:49.017Z,46.57
2019-02-09T19:53:18.345Z,41.93
2019-02-09T19:55:47.890Z,25.30
2019-02-09T19:58:17.266Z,35.63
2019-02-09T20:00:46.746Z,33.37
2019-02-09T20:03:17.037Z,42.63
2019-02-09T20:05:47.104Z,46.40
2019-02-09T20:08:17.498Z,47.00
2019-02-09T20:10:46.914Z,37.87
2019-02-09T20:13:19.298Z,32.00
2019-02-09T20:15:49.182Z,43.40
2019-02-09T20:18:19.213Z,42.50
2019-02-09T20:20:48.674Z,33.63
2019-02-09T20:23:18.206Z,41.83
2019-02-09T20:25:47.760Z,52.00
2019-02-09T20:28:17.587Z,34.30
2019-02-09T20:30:46.958Z,31.50
2019-02-09T20:33:16.546Z,46.07
2019-02-09T20:35:45.950Z,43.57
2019-02-09T20:38:17.113Z,34.10
2019-02-09T20:40:49.811Z,47.33
2019-02-09T20:43:20.591Z,52.13
2019-02-09T20:45:50.110Z,53.77
2019-02-09T20:48:19.566Z,54.00
2019-02-09T20:50:49.305Z,49.83
2019-02-09T20:53:18.709Z,37.23
2019-02-09T20:55:49.006Z,43.00
2019-02-09T20:58:18.760Z,55.00
2019-02-09T21:00:48.294Z,55.73
2019-02-09T21:03:18.084Z,26.47
2019-02-09T21:05:48.340Z,44.97
2019-02-09T21:08:18.092Z,30.93
2019-02-09T21:10:47.985Z,32.50
2019-02-09T21:13:17.393Z,52.93
2019-02-09T21:15:47.350Z,36.07
2019-02-09T21:18:16.731Z,35.50
2019-02-09T21:20:46.340Z,35.63
2019-02-09T21:23:15.960Z,41.33
2019-02-09T21:25:45.761Z,41.50
2019-02-09T21:28:15.285Z,49.60
2019-02-09T21:30:44.876Z,55.97
2019-02-09T21:33:14.270Z,52.53
2019-02-09T21:35:44.486Z,56.03
2019-02-09T21:38:14.051Z,48.37
2019-02-09T21:40:43.485Z,28.20
2019-02-09T21:43:12.918Z,50.03
2019-02-09T21:45:45.251Z,39.73
2019-02-09T21:48:13.553Z,44.63
2019-02-09T21:50:42.951Z,45.20
2019-02-09T21:53:12.452Z,52.33
2019-02-09T21:55:41.852Z,39.07
2019-02-09T21:58:11.270Z,41.40
2019-02-09T22:00:42.446Z,44.03
2019-02-09T22:03:12.916Z,44.77
2019-02-09T22:05:42.523Z,48.13
2019-02-09T22:08:19.222Z,48.57
2019-02-09T22:10:45.393Z,46.90
2019-02-09T22:13:14.910Z,48.07
2019-02-09T22:15:44.340Z,46.67
2019-02-09T22:18:13.803Z,39.03
2019-02-09T22:20:43.265Z,49.37
2019-02-09T22:23:12.698Z,39.77
2019-02-09T22:25:42.013Z,39.20
2019-02-09T22:28:11.454Z,46.90
2019-02-09T22:30:40.949Z,30.90
2019-02-09T22:33:10.516Z,47.17
2019-02-09T22:35:39.900Z,51.13
2019-02-09T22:38:09.258Z,46.30
2019-02-09T22:40:39.170Z,34.20
2019-02-09T22:43:08.862Z,46.00
2019-02-09T22:45:38.392Z,44.67
2019-02-09T22:48:09.482Z,51.03
2019-02-09T22:50:41.390Z,50.00
2019-02-09T22:53:11.202Z,50.23
2019-02-09T22:55:40.611Z,62.33
2019-02-09T22:58:10.002Z,38.10
2019-02-09T23:01:05.169Z,57.80
2019-02-09T23:03:58.753Z,57.37
2019-02-09T23:06:52.925Z,53.83
2019-02-09T23:09:25.238Z,36.13
2019-02-09T23:11:54.638Z,48.47
2019-02-09T23:14:24.053Z,50.13
2019-02-09T23:16:53.519Z,48.70
2019-02-09T23:19:22.832Z,42.70
2019-02-09T23:21:52.183Z,39.17
2019-02-09T23:24:21.581Z,52.47
2019-02-09T23:26:51.046Z,52.33
2019-02-09T23:29:20.381Z,37.33
2019-02-09T23:31:49.788Z,46.17
2019-02-09T23:34:19.222Z,57.70
2019-02-09T23:36:48.553Z,57.47
2019-02-09T23:39:18.017Z,56.83
2019-02-09T23:41:47.369Z,54.87
2019-02-09T23:44:16.846Z,48.70
2019-02-09T23:46:46.197Z,33.07
2019-02-09T23:49:15.626Z,46.13
2019-02-09T23:51:44.990Z,41.03
2019-02-09T23:54:14.374Z,34.77
2019-02-09T23:56:43.823Z,44.07
2019-02-09T23:59:13.170Z,58.80
